Time;durP1;ratioP1;P1;durP2;ratioP2;P2;SDS_P1;SDS_P2;PMS_P1;PMS_P2;Temp;Humidity;BMP_temperature;BMP_pressure;BME280_temperature;BME280_humidity;BME280_pressure;Samples;Min_cycle;Max_cycle;Signal;HPM_P1;HPM_P2
2023/01/08 00:02:24;;;;;;;3.58;2.50;;;10.20;99.90;;;;;;4844613;29;20092;-71
2023/01/08 00:04:49;;;;;;;4.13;2.50;;;10.30;99.90;;;;;;4857729;29;20057;-72
2023/01/08 00:07:15;;;;;;;3.40;2.20;;;10.30;99.90;;;;;;4844088;29;20045;-71
2023/01/08 00:09:41;;;;;;;4.07;2.38;;;10.30;99.90;;;;;;4857954;29;20057;-71
2023/01/08 00:12:06;;;;;;;3.45;2.50;;;10.30;99.90;;;;;;4859127;29;20140;-71
2023/01/08 00:14:32;;;;;;;4.07;2.78;;;10.30;99.90;;;;;;4857877;29;20053;-71
2023/01/08 00:16:58;;;;;;;4.55;2.42;;;10.40;99.90;;;;;;4859627;29;20049;-70
2023/01/08 00:19:24;;;;;;;2.20;2.00;;;10.40;99.90;;;;;;4857118;29;20710;-70
2023/01/08 00:21:50;;;;;;;3.30;2.25;;;10.40;99.90;;;;;;4857367;29;20049;-70
2023/01/08 00:24:15;;;;;;;3.33;2.50;;;10.40;99.90;;;;;;4857877;29;20049;-71
2023/01/08 00:26:41;;;;;;;2.63;2.28;;;10.40;99.90;;;;;;4841274;29;20500;-70
2023/01/08 00:29:07;;;;;;;3.08;2.22;;;10.40;99.90;;;;;;4840012;29;20122;-71
2023/01/08 00:31:32;;;;;;;2.67;2.33;;;10.40;99.90;;;;;;4859426;29;20045;-71
2023/01/08 00:33:58;;;;;;;4.15;2.25;;;10.40;99.90;;;;;;4841097;29;20468;-71
2023/01/08 00:36:24;;;;;;;2.83;2.13;;;10.40;99.90;;;;;;4854176;29;20042;-71
2023/01/08 00:38:50;;;;;;;3.47;2.25;;;10.40;99.90;;;;;;4838513;29;20050;-70
2023/01/08 00:41:16;;;;;;;2.97;1.83;;;10.40;99.90;;;;;;4858961;29;20049;-70
2023/01/08 00:43:42;;;;;;;3.33;2.13;;;10.30;99.90;;;;;;4857707;29;20124;-71
2023/01/08 00:46:08;;;;;;;3.22;2.13;;;10.30;99.90;;;;;;4857690;29;20172;-70
2023/01/08 00:48:37;;;;;;;2.97;2.10;;;10.30;99.90;;;;;;4858118;29;20072;-70
2023/01/08 00:51:04;;;;;;;4.00;2.35;;;10.30;99.90;;;;;;4844418;29;20445;-71
2023/01/08 00:53:30;;;;;;;2.95;2.00;;;10.30;99.90;;;;;;4829169;29;20157;-70
2023/01/08 00:56:06;;;;;;;3.92;2.28;;;10.30;99.90;;;;;;4848992;29;20056;-69
2023/01/08 00:58:33;;;;;;;2.92;1.98;;;10.20;99.90;;;;;;4853968;29;20060;-70
2023/01/08 01:01:00;;;;;;;2.95;1.92;;;10.30;99.90;;;;;;4871552;29;20118;-70
2023/01/08 01:03:25;;;;;;;4.03;2.35;;;10.20;99.90;;;;;;4845323;29;20463;-70
2023/01/08 01:06:03;;;;;;;3.25;1.92;;;10.20;99.90;;;;;;4832735;29;20069;-70
2023/01/08 01:08:29;;;;;;;3.65;2.20;;;10.20;99.90;;;;;;4834819;29;20581;-70
2023/01/08 01:10:55;;;;;;;4.00;2.20;;;10.20;99.90;;;;;;4856139;29;20129;-70
2023/01/08 01:13:20;;;;;;;4.05;2.28;;;10.20;99.90;;;;;;4857437;29;20125;-70
2023/01/08 01:15:56;;;;;;;2.90;2.05;;;10.20;99.90;;;;;;4856630;29;20120;-70
2023/01/08 01:18:22;;;;;;;3.47;2.05;;;10.20;99.90;;;;;;4880249;29;20042;-70
2023/01/08 01:20:48;;;;;;;3.60;2.00;;;10.20;99.90;;;;;;4850958;29;20133;-69
2023/01/08 01:23:14;;;;;;;3.92;2.17;;;10.20;99.90;;;;;;4845758;29;20044;-70
2023/01/08 01:25:40;;;;;;;3.53;1.88;;;10.20;99.90;;;;;;4857571;29;20049;-70
2023/01/08 01:28:05;;;;;;;4.15;1.90;;;10.20;99.90;;;;;;4842902;29;20053;-70
2023/01/08 01:30:31;;;;;;;3.67;1.90;;;10.20;99.90;;;;;;4857696;29;20065;-71
2023/01/08 01:32:57;;;;;;;3.53;2.03;;;10.20;99.90;;;;;;4845383;29;20042;-70
2023/01/08 01:35:22;;;;;;;3.97;1.73;;;10.10;99.90;;;;;;4841706;29;20049;-70
2023/01/08 01:37:50;;;;;;;3.00;1.60;;;10.20;99.90;;;;;;4842696;29;20160;-69
2023/01/08 01:40:16;;;;;;;3.72;1.75;;;10.20;99.90;;;;;;4857429;29;20178;-70
2023/01/08 01:42:43;;;;;;;3.10;1.67;;;10.20;99.90;;;;;;4857279;29;20160;-70
2023/01/08 01:45:23;;;;;;;4.78;2.40;;;10.20;99.90;;;;;;4856754;29;20076;-70
2023/01/08 01:47:54;;;;;;;3.00;1.83;;;10.20;99.90;;;;;;4846638;29;20225;-70
2023/01/08 01:50:38;;;;;;;3.03;1.70;;;10.20;99.90;;;;;;4857502;29;20177;-70
2023/01/08 01:53:30;;;;;;;2.90;1.90;;;10.20;99.90;;;;;;4856970;29;20109;-71
2023/01/08 01:55:56;;;;;;;5.00;2.15;;;10.20;99.90;;;;;;4840365;29;20102;-70
2023/01/08 01:58:28;;;;;;;3.00;1.90;;;10.10;99.90;;;;;;4858083;29;20091;-70
2023/01/08 02:00:56;;;;;;;6.05;2.10;;;10.10;99.90;;;;;;4839280;29;20057;-76
2023/01/08 02:03:29;;;;;;;3.58;2.05;;;10.10;99.90;;;;;;4859644;29;20130;-76
2023/01/08 02:06:30;;;;;;;3.28;2.10;;;10.00;99.90;;;;;;4858899;29;20042;-76
2023/01/08 02:09:19;;;;;;;4.45;2.00;;;10.00;99.90;;;;;;4859740;29;20056;-76
2023/01/08 02:12:17;;;;;;;2.95;1.73;;;10.00;99.90;;;;;;4843248;29;20046;-76
2023/01/08 02:15:04;;;;;;;6.47;2.00;;;10.00;99.90;;;;;;4838368;29;20103;-76
2023/01/08 02:17:51;;;;;;;5.75;1.80;;;9.90;99.90;;;;;;4844351;29;20081;-76
2023/01/08 02:20:29;;;;;;;4.68;1.67;;;9.90;99.90;;;;;;4842779;29;20088;-76
2023/01/08 02:23:13;;;;;;;6.15;1.80;;;9.90;99.90;;;;;;4856833;29;20053;-76
2023/01/08 02:26:17;;;;;;;3.38;1.50;;;9.80;99.90;;;;;;4860649;29;20125;-78
2023/01/08 02:28:52;;;;;;;5.97;1.95;;;9.70;99.90;;;;;;4791045;29;20063;-76
2023/01/08 02:31:20;;;;;;;5.78;1.38;;;9.70;99.90;;;;;;4771769;30;20124;-76
2023/01/08 02:33:45;;;;;;;6.55;1.70;;;9.70;99.90;;;;;;4807078;29;20175;-76
2023/01/08 02:36:28;;;;;;;6.75;2.22;;;9.60;99.90;;;;;;4842528;29;20133;-76
2023/01/08 02:39:16;;;;;;;6.85;1.35;;;9.50;99.90;;;;;;4848569;29;20136;-74
2023/01/08 02:42:05;;;;;;;5.50;1.40;;;9.50;99.90;;;;;;4857045;29;20520;-75
2023/01/08 02:45:18;;;;;;;6.05;1.60;;;9.40;99.90;;;;;;4857350;29;20045;-76
2023/01/08 02:48:01;;;;;;;7.53;1.42;;;9.40;99.90;;;;;;4779803;29;20138;-76
2023/01/08 02:50:57;;;;;;;7.45;1.58;;;9.30;99.90;;;;;;4785370;29;20405;-76
2023/01/08 02:53:27;;;;;;;4.85;1.58;;;9.20;99.90;;;;;;4843225;29;20109;-76
2023/01/08 02:56:04;;;;;;;5.47;1.33;;;9.20;99.90;;;;;;4842476;29;20053;-75
2023/01/08 02:58:31;;;;;;;;;;;9.20;99.90;;;;;;4858700;29;20049;-75
2023/01/08 03:00:58;;;;;;;9.43;1.77;;;9.10;99.90;;;;;;4856260;29;20713;-74
2023/01/08 03:03:26;;;;;;;11.88;2.45;;;9.10;99.90;;;;;;4858450;29;20065;-75
2023/01/08 03:06:05;;;;;;;7.50;1.60;;;9.10;99.90;;;;;;4855877;29;20743;-75
2023/01/08 03:08:34;;;;;;;5.53;1.15;;;9.00;99.90;;;;;;4857945;29;20053;-75
2023/01/08 03:11:08;;;;;;;4.63;1.40;;;9.00;99.90;;;;;;4857024;29;20037;-75
2023/01/08 03:13:44;;;;;;;5.93;1.13;;;8.90;99.90;;;;;;4858584;29;20120;-75
2023/01/08 03:16:32;;;;;;;7.80;1.60;;;8.90;99.90;;;;;;4857786;29;20049;-75
2023/01/08 03:19:00;;;;;;;;;;;8.80;99.90;;;;;;4858427;29;20061;-75
2023/01/08 03:21:26;;;;;;;9.45;1.58;;;8.80;99.90;;;;;;4856486;29;19920;-76
2023/01/08 03:23:52;;;;;;;7.85;1.63;;;8.80;99.90;;;;;;4857072;29;20057;-74
2023/01/08 03:26:24;;;;;;;7.65;1.77;;;8.80;99.90;;;;;;4855282;29;20045;-75
2023/01/08 03:28:53;;;;;;;6.70;1.60;;;8.80;99.90;;;;;;4856638;29;20186;-70
2023/01/08 03:31:22;;;;;;;6.95;1.50;;;8.80;99.90;;;;;;4836988;29;20046;-71
2023/01/08 03:33:49;;;;;;;6.10;1.52;;;8.80;99.90;;;;;;4856792;29;20052;-71
2023/01/08 03:36:20;;;;;;;5.45;1.70;;;8.80;99.90;;;;;;4855430;29;20101;-71
2023/01/08 03:39:00;;;;;;;7.88;1.63;;;8.80;99.90;;;;;;4841726;29;20072;-71
2023/01/08 03:41:29;;;;;;;5.95;1.50;;;8.80;99.90;;;;;;4831631;29;20052;-71
2023/01/08 03:43:55;;;;;;;3.47;1.20;;;8.80;99.90;;;;;;4856000;29;20060;-75
2023/01/08 03:46:29;;;;;;;6.45;1.40;;;8.80;99.90;;;;;;4858100;29;20053;-76
2023/01/08 03:48:57;;;;;;;3.72;1.20;;;8.80;99.90;;;;;;4856900;29;20046;-76
2023/01/08 03:51:22;;;;;;;3.58;1.10;;;8.80;99.90;;;;;;4842547;29;20419;-76
2023/01/08 03:53:51;;;;;;;4.53;1.30;;;8.80;99.90;;;;;;4859493;29;20060;-76
2023/01/08 03:56:16;;;;;;;5.38;1.17;;;8.80;99.90;;;;;;4857715;29;20050;-76
2023/01/08 03:58:42;;;;;;;4.32;1.02;;;8.80;99.90;;;;;;4841659;29;20042;-76
2023/01/08 04:01:08;;;;;;;5.32;1.50;;;8.80;99.90;;;;;;4839031;29;20104;-76
2023/01/08 04:03:34;;;;;;;4.32;1.35;;;8.80;99.90;;;;;;4858030;29;20110;-76
2023/01/08 04:06:00;;;;;;;3.75;1.25;;;8.80;99.90;;;;;;4853624;29;20052;-76
2023/01/08 04:08:25;;;;;;;5.18;1.50;;;8.80;99.90;;;;;;4857660;29;20120;-76
2023/01/08 04:10:51;;;;;;;7.22;1.65;;;8.80;99.90;;;;;;4858163;29;20041;-76
2023/01/08 04:13:17;;;;;;;4.82;1.25;;;8.80;99.90;;;;;;4853295;29;20050;-76
2023/01/08 04:15:50;;;;;;;4.40;1.55;;;8.80;99.90;;;;;;4842646;29;20073;-76
2023/01/08 04:18:16;;;;;;;6.18;1.40;;;8.70;99.90;;;;;;4859894;29;20096;-76
2023/01/08 04:20:51;;;;;;;;;;;8.70;99.90;;;;;;4861199;29;20045;-76
2023/01/08 04:23:16;;;;;;;6.25;1.20;;;8.70;99.90;;;;;;4859913;29;20297;-76
2023/01/08 04:25:42;;;;;;;5.35;1.20;;;8.70;99.90;;;;;;4860653;29;20053;-76
2023/01/08 04:28:08;;;;;;;6.30;1.38;;;8.70;99.90;;;;;;4860286;29;20481;-77
2023/01/08 04:30:33;;;;;;;3.67;1.15;;;8.70;99.90;;;;;;4845441;29;20053;-76
2023/01/08 04:32:59;;;;;;;4.18;1.35;;;8.70;99.90;;;;;;4860760;29;20719;-76
2023/01/08 04:35:25;;;;;;;4.72;1.20;;;8.70;99.90;;;;;;4846033;29;20124;-76
2023/01/08 04:37:50;;;;;;;5.25;1.20;;;8.70;99.90;;;;;;4860088;29;20053;-76
2023/01/08 04:40:16;;;;;;;3.35;1.20;;;8.80;99.90;;;;;;4846287;29;20054;-76
2023/01/08 04:42:42;;;;;;;4.00;1.15;;;8.80;99.90;;;;;;4829372;29;20064;-76
2023/01/08 04:45:08;;;;;;;2.05;1.30;;;8.80;99.90;;;;;;4845432;29;20049;-76
2023/01/08 04:47:33;;;;;;;3.13;1.20;;;8.80;99.90;;;;;;4845314;29;20045;-76
2023/01/08 04:49:59;;;;;;;3.55;1.40;;;8.90;99.90;;;;;;4861106;29;20787;-76
2023/01/08 04:52:27;;;;;;;3.53;1.30;;;8.90;99.90;;;;;;4844467;29;20577;-76
2023/01/08 04:54:53;;;;;;;3.97;1.52;;;9.00;99.90;;;;;;4860149;29;20081;-76
2023/01/08 04:57:19;;;;;;;2.92;1.40;;;9.00;99.90;;;;;;4858863;29;20136;-77
2023/01/08 04:59:44;;;;;;;4.50;1.75;;;9.10;99.90;;;;;;4843839;29;20044;-77
2023/01/08 05:02:11;;;;;;;2.15;1.25;;;9.10;99.90;;;;;;4843806;29;20094;-77
2023/01/08 05:04:37;;;;;;;4.50;1.38;;;9.10;99.90;;;;;;4845797;29;20053;-77
2023/01/08 05:07:03;;;;;;;4.43;1.38;;;9.10;99.90;;;;;;4860868;29;20406;-76
2023/01/08 05:09:29;;;;;;;2.35;1.23;;;9.10;99.90;;;;;;4828558;29;20624;-77
2023/01/08 05:11:55;;;;;;;3.42;1.60;;;9.10;99.90;;;;;;4857552;29;20069;-76
2023/01/08 05:14:21;;;;;;;3.90;1.60;;;9.20;99.90;;;;;;4844973;29;20489;-74
2023/01/08 05:16:46;;;;;;;3.20;1.33;;;9.20;99.90;;;;;;4841412;29;20490;-76
2023/01/08 05:19:13;;;;;;;5.13;1.80;;;9.20;99.90;;;;;;4855840;29;20045;-76
2023/01/08 05:21:38;;;;;;;2.35;1.52;;;9.20;99.90;;;;;;4860501;29;20097;-77
2023/01/08 05:24:04;;;;;;;3.05;1.40;;;9.30;99.90;;;;;;4858555;29;20053;-77
2023/01/08 05:26:30;;;;;;;4.22;1.73;;;9.30;99.90;;;;;;4859147;29;20072;-71
2023/01/08 05:28:57;;;;;;;5.03;1.83;;;9.40;99.90;;;;;;4856062;29;20124;-71
2023/01/08 05:31:23;;;;;;;4.05;1.65;;;9.40;99.90;;;;;;4859354;29;20044;-70
2023/01/08 05:33:48;;;;;;;3.15;1.42;;;9.50;99.90;;;;;;4857849;29;20354;-71
2023/01/08 05:36:14;;;;;;;2.35;1.25;;;9.50;99.90;;;;;;4842884;29;20124;-71
2023/01/08 05:38:40;;;;;;;2.88;1.65;;;9.50;99.90;;;;;;4827029;29;20493;-70
2023/01/08 05:41:06;;;;;;;4.00;1.40;;;9.50;99.90;;;;;;4843721;29;20474;-69
2023/01/08 05:43:33;;;;;;;4.88;1.50;;;9.50;99.90;;;;;;4856966;29;20041;-69
2023/01/08 05:45:59;;;;;;;4.20;1.85;;;9.50;99.90;;;;;;4857733;29;20053;-69
2023/01/08 05:48:26;;;;;;;5.85;2.00;;;9.60;99.90;;;;;;4855769;29;20462;-71
2023/01/08 05:50:52;;;;;;;5.97;2.08;;;9.60;99.90;;;;;;4831456;29;20132;-70
2023/01/08 05:53:18;;;;;;;2.97;2.03;;;9.50;99.90;;;;;;4856956;29;20124;-71
2023/01/08 05:55:44;;;;;;;;;;;9.50;99.90;;;;;;4856473;29;20038;-71
2023/01/08 05:58:10;;;;;;;2.53;1.40;;;9.50;99.90;;;;;;4856111;29;19947;-70
2023/01/08 06:00:37;;;;;;;3.45;1.40;;;9.50;99.90;;;;;;4859175;29;20101;-71
2023/01/08 06:03:03;;;;;;;1.77;1.23;;;9.40;99.90;;;;;;4858548;29;20458;-70
2023/01/08 06:05:30;;;;;;;2.25;1.30;;;9.40;99.90;;;;;;4856196;29;20053;-70
2023/01/08 06:07:57;;;;;;;4.40;1.80;;;9.40;99.90;;;;;;4855420;29;20073;-71
2023/01/08 06:10:23;;;;;;;2.80;1.25;;;9.40;99.90;;;;;;4854311;29;20080;-75
2023/01/08 06:12:49;;;;;;;4.82;1.40;;;9.40;99.90;;;;;;4858932;29;20502;-77
2023/01/08 06:15:15;;;;;;;3.42;1.42;;;9.40;99.90;;;;;;4831299;29;20072;-76
2023/01/08 06:17:41;;;;;;;3.47;1.50;;;9.30;99.90;;;;;;4855790;29;20041;-77
2023/01/08 06:20:07;;;;;;;2.85;1.30;;;9.30;99.90;;;;;;4840113;29;20061;-76
2023/01/08 06:22:34;;;;;;;3.83;1.40;;;9.30;99.90;;;;;;4840930;29;20080;-76
2023/01/08 06:25:00;;;;;;;3.78;1.45;;;9.30;99.90;;;;;;4857580;29;20064;-76
2023/01/08 06:27:25;;;;;;;2.70;1.23;;;9.30;99.90;;;;;;4840753;29;20129;-70
2023/01/08 06:29:51;;;;;;;3.50;1.50;;;9.20;99.90;;;;;;4855172;29;20144;-70
2023/01/08 06:32:17;;;;;;;2.05;0.90;;;9.20;99.90;;;;;;4856483;29;20504;-70
2023/01/08 06:34:42;;;;;;;1.95;1.20;;;9.20;99.90;;;;;;4837493;29;20049;-75
2023/01/08 06:37:08;;;;;;;2.35;1.20;;;9.20;99.90;;;;;;4855433;29;20140;-75
2023/01/08 06:39:34;;;;;;;3.10;1.20;;;9.20;99.90;;;;;;4857801;29;20133;-76
2023/01/08 06:41:59;;;;;;;2.53;1.40;;;9.20;99.90;;;;;;4857953;29;20038;-77
2023/01/08 06:44:25;;;;;;;3.22;1.30;;;9.20;99.90;;;;;;4853903;29;20134;-76
2023/01/08 06:46:51;;;;;;;5.65;1.50;;;9.20;99.90;;;;;;4858276;29;20045;-77
2023/01/08 06:49:18;;;;;;;1.98;1.30;;;9.20;99.90;;;;;;4857053;29;20053;-76
2023/01/08 06:51:44;;;;;;;2.33;1.30;;;9.20;99.90;;;;;;4843811;29;20509;-76
2023/01/08 06:54:10;;;;;;;3.40;1.50;;;9.10;99.90;;;;;;4857254;29;20731;-78
2023/01/08 06:56:36;;;;;;;2.92;1.45;;;9.10;99.90;;;;;;4858536;29;20041;-76
2023/01/08 06:59:02;;;;;;;3.85;1.60;;;9.10;99.90;;;;;;4855503;29;20513;-77
2023/01/08 07:01:27;;;;;;;2.45;1.45;;;9.10;99.90;;;;;;4856915;29;20118;-77
2023/01/08 07:03:54;;;;;;;2.50;1.40;;;9.00;99.90;;;;;;4857312;29;20113;-76
2023/01/08 07:06:21;;;;;;;2.65;1.30;;;9.00;99.90;;;;;;4821111;29;20066;-76
2023/01/08 07:08:47;;;;;;;4.18;1.60;;;9.00;99.90;;;;;;4848425;29;20052;-75
2023/01/08 07:11:14;;;;;;;2.53;1.40;;;9.00;99.90;;;;;;4840469;29;20079;-77
2023/01/08 07:13:40;;;;;;;3.20;1.55;;;9.00;99.90;;;;;;4857530;29;20054;-77
2023/01/08 07:16:11;;;;;;;4.20;1.80;;;9.00;99.90;;;;;;4858471;29;20471;-77
2023/01/08 07:18:37;;;;;;;3.35;1.88;;;9.10;99.90;;;;;;4854440;29;20084;-77
2023/01/08 07:21:04;;;;;;;5.38;2.00;;;9.10;99.90;;;;;;4851338;29;20080;-76
2023/01/08 07:23:31;;;;;;;2.95;1.58;;;9.10;99.90;;;;;;4841554;29;20061;-77
2023/01/08 07:26:04;;;;;;;2.88;1.67;;;9.10;99.90;;;;;;4855629;29;20042;-77
2023/01/08 07:28:30;;;;;;;4.80;1.98;;;9.10;99.90;;;;;;4840359;29;20128;-77
2023/01/08 07:30:56;;;;;;;3.25;1.50;;;9.10;99.90;;;;;;4853846;29;20137;-77
2023/01/08 07:33:22;;;;;;;4.93;1.75;;;9.00;99.90;;;;;;4842092;29;20046;-76
2023/01/08 07:35:54;;;;;;;3.67;1.52;;;9.00;99.90;;;;;;4855865;29;20073;-77
2023/01/08 07:38:20;;;;;;;4.20;1.88;;;9.10;99.90;;;;;;4850909;29;20446;-77
2023/01/08 07:40:46;;;;;;;4.18;1.77;;;9.10;99.90;;;;;;4852481;29;20054;-78
2023/01/08 07:43:12;;;;;;;5.38;2.00;;;9.10;99.90;;;;;;4833391;29;20050;-70
2023/01/08 07:45:38;;;;;;;4.78;1.77;;;9.10;99.90;;;;;;4851852;29;20134;-77
2023/01/08 07:48:04;;;;;;;5.78;1.60;;;9.00;99.90;;;;;;4858103;29;20343;-78
2023/01/08 07:50:30;;;;;;;4.28;1.85;;;9.00;99.90;;;;;;4855328;29;20392;-77
2023/01/08 07:52:59;;;;;;;3.33;1.70;;;8.90;99.90;;;;;;4859797;29;20053;-71
2023/01/08 07:55:25;;;;;;;2.40;1.20;;;8.90;99.90;;;;;;4858761;29;20044;-78
2023/01/08 07:57:51;;;;;;;3.33;1.65;;;8.90;99.90;;;;;;4859110;29;20049;-77
2023/01/08 08:00:17;;;;;;;2.42;1.38;;;8.80;99.90;;;;;;4839561;29;20141;-77
2023/01/08 08:02:42;;;;;;;3.13;1.55;;;8.80;99.90;;;;;;4843467;29;20064;-77
2023/01/08 08:05:08;;;;;;;3.63;1.48;;;8.80;99.90;;;;;;4856903;29;20180;-77
2023/01/08 08:07:34;;;;;;;5.05;2.28;;;8.80;99.90;;;;;;4860618;29;20562;-78
2023/01/08 08:10:01;;;;;;;7.30;2.38;;;8.80;99.90;;;;;;4855096;29;20076;-78
2023/01/08 08:12:26;;;;;;;4.60;2.10;;;8.80;99.90;;;;;;4858314;29;20073;-75
2023/01/08 08:14:52;;;;;;;4.10;2.20;;;8.80;99.90;;;;;;4847920;29;20742;-70
2023/01/08 08:17:21;;;;;;;6.80;2.58;;;8.80;99.90;;;;;;4855632;29;20052;-69
2023/01/08 08:19:47;;;;;;;6.10;2.78;;;8.80;99.90;;;;;;4842939;29;20049;-70
2023/01/08 08:22:13;;;;;;;3.97;2.10;;;8.80;99.90;;;;;;4857393;29;20056;-71
2023/01/08 08:24:39;;;;;;;4.32;2.50;;;8.80;99.90;;;;;;4841361;29;20049;-70
2023/01/08 08:27:05;;;;;;;5.88;2.28;;;8.80;99.90;;;;;;4857776;29;20097;-70
2023/01/08 08:29:30;;;;;;;5.18;2.20;;;8.80;99.90;;;;;;4837627;29;20049;-70
2023/01/08 08:32:00;;;;;;;5.68;2.35;;;8.80;99.90;;;;;;4842907;29;20046;-70
2023/01/08 08:34:25;;;;;;;5.53;2.22;;;8.80;99.90;;;;;;4843715;29;20514;-70
2023/01/08 08:36:51;;;;;;;6.43;2.13;;;8.80;99.90;;;;;;4839807;29;20241;-71
2023/01/08 08:39:17;;;;;;;6.55;2.15;;;8.90;99.90;;;;;;4840055;29;20456;-71
2023/01/08 08:41:43;;;;;;;5.50;1.98;;;8.90;99.90;;;;;;4819971;29;20081;-70
2023/01/08 08:44:09;;;;;;;4.60;1.70;;;8.90;99.90;;;;;;4835083;29;20050;-71
2023/01/08 08:46:34;;;;;;;6.03;2.00;;;9.00;99.90;;;;;;4826020;29;20046;-70
2023/01/08 08:49:00;;;;;;;5.57;1.80;;;8.90;99.90;;;;;;4857352;29;20053;-70
2023/01/08 08:51:26;;;;;;;4.60;1.73;;;9.00;99.90;;;;;;4854083;29;20140;-71
2023/01/08 08:53:52;;;;;;;7.50;1.77;;;9.00;99.90;;;;;;4858370;29;20148;-71
2023/01/08 08:56:20;;;;;;;4.88;1.90;;;9.00;99.90;;;;;;4858094;29;20136;-70
2023/01/08 08:58:46;;;;;;;7.75;1.80;;;9.00;99.90;;;;;;4857115;29;20117;-71
2023/01/08 09:01:12;;;;;;;6.13;1.60;;;9.00;99.90;;;;;;4854532;29;20077;-70
2023/01/08 09:03:38;;;;;;;4.38;1.58;;;9.00;99.90;;;;;;4856416;29;20056;-70
2023/01/08 09:06:04;;;;;;;8.15;2.47;;;9.00;99.90;;;;;;4842218;29;20081;-70
2023/01/08 09:08:29;;;;;;;4.38;1.63;;;9.00;99.90;;;;;;4855754;29;20049;-70
2023/01/08 09:10:55;;;;;;;3.33;1.30;;;9.00;99.90;;;;;;4856484;29;20402;-70
2023/01/08 09:13:21;;;;;;;5.45;1.60;;;9.00;99.90;;;;;;4858586;29;20045;-70
2023/01/08 09:15:47;;;;;;;9.05;1.88;;;9.00;99.90;;;;;;4842347;29;20416;-75
2023/01/08 09:18:12;;;;;;;7.75;2.20;;;9.00;99.90;;;;;;4844929;29;20053;-75
2023/01/08 09:20:38;;;;;;;5.05;1.67;;;9.00;99.90;;;;;;4856659;29;20049;-75
2023/01/08 09:23:04;;;;;;;5.65;1.45;;;9.00;99.90;;;;;;4860425;29;20033;-75
2023/01/08 09:25:30;;;;;;;8.13;1.55;;;9.00;99.90;;;;;;4845378;29;20097;-75
2023/01/08 09:28:04;;;;;;;4.90;2.10;;;9.00;99.90;;;;;;4858043;29;20049;-75
2023/01/08 09:30:30;;;;;;;4.88;1.73;;;9.00;99.90;;;;;;4839848;29;20045;-75
2023/01/08 09:33:00;;;;;;;5.82;1.80;;;9.00;99.90;;;;;;4841714;29;20110;-70
2023/01/08 09:35:27;;;;;;;2.95;1.40;;;9.00;99.90;;;;;;4856882;29;20121;-70
2023/01/08 09:37:54;;;;;;;4.53;1.52;;;9.00;99.90;;;;;;4854374;29;20082;-70
2023/01/08 09:40:27;;;;;;;4.63;1.60;;;9.00;99.90;;;;;;4855264;29;20514;-70
2023/01/08 09:43:00;;;;;;;5.53;1.45;;;9.10;99.90;;;;;;4854333;29;20045;-70
2023/01/08 09:45:38;;;;;;;7.45;2.28;;;9.10;99.90;;;;;;4841043;29;20793;-70
2023/01/08 09:48:11;;;;;;;5.75;1.80;;;9.00;99.90;;;;;;4856865;29;20060;-70
2023/01/08 09:50:37;;;;;;;7.50;2.03;;;9.00;99.90;;;;;;4833969;29;20076;-70
2023/01/08 09:53:03;;;;;;;6.45;2.08;;;9.00;99.90;;;;;;4839946;29;20478;-70
2023/01/08 09:55:32;;;;;;;4.40;1.50;;;9.00;99.90;;;;;;4852812;29;20060;-71
2023/01/08 09:57:59;;;;;;;7.75;1.60;;;8.90;99.90;;;;;;4855038;29;20159;-71
2023/01/08 10:00:28;;;;;;;5.82;1.58;;;8.90;99.90;;;;;;4855549;29;20077;-70
2023/01/08 10:02:55;;;;;;;3.17;1.33;;;9.00;99.90;;;;;;4855229;29;20463;-70
2023/01/08 10:05:21;;;;;;;;;;;9.00;99.90;;;;;;4821565;29;20080;-69
2023/01/08 10:07:47;;;;;;;7.03;1.90;;;8.90;99.90;;;;;;4854501;29;19924;-75
2023/01/08 10:10:20;;;;;;;;;;;8.90;99.90;;;;;;4851110;29;20048;-74
2023/01/08 10:12:48;;;;;;;6.07;1.38;;;8.90;99.90;;;;;;4857344;29;19959;-77
2023/01/08 10:15:16;;;;;;;8.98;1.65;;;8.90;99.90;;;;;;4858641;29;20093;-76
2023/01/08 10:17:48;;;;;;;3.88;1.40;;;8.90;99.90;;;;;;4855324;29;20527;-77
2023/01/08 10:20:22;;;;;;;6.03;1.45;;;8.90;99.90;;;;;;4856711;29;20132;-77
2023/01/08 10:22:49;;;;;;;7.72;1.85;;;8.90;99.90;;;;;;4855007;29;20061;-77
2023/01/08 10:25:18;;;;;;;6.65;1.52;;;8.90;99.90;;;;;;4857552;29;20146;-77
2023/01/08 10:28:01;;;;;;;4.72;1.50;;;8.90;99.90;;;;;;4839911;29;20136;-77
2023/01/08 10:30:30;;;;;;;11.15;1.80;;;8.90;99.90;;;;;;4840167;29;20133;-77
2023/01/08 10:33:01;;;;;;;5.93;1.67;;;8.90;99.90;;;;;;4840121;29;20080;-77
2023/01/08 10:35:36;;;;;;;5.88;1.48;;;8.90;99.90;;;;;;4856458;29;20398;-70
2023/01/08 10:38:02;;;;;;;5.70;1.50;;;8.90;99.70;;;;;;4856116;29;20188;-70
2023/01/08 10:40:36;;;;;;;7.75;1.60;;;8.90;99.50;;;;;;4855213;29;20157;-70
2023/01/08 10:43:12;;;;;;;5.88;1.30;;;8.90;99.30;;;;;;4855100;29;20174;-70
2023/01/08 10:45:37;;;;;;;7.85;1.50;;;9.00;99.20;;;;;;4855139;29;20049;-70
2023/01/08 10:48:07;;;;;;;8.00;1.50;;;9.00;97.60;;;;;;4839307;29;20045;-70
2023/01/08 10:50:33;;;;;;;8.55;1.98;;;9.00;96.90;;;;;;4837251;29;20053;-70
2023/01/08 10:53:04;;;;;;;8.77;1.80;;;9.00;96.70;;;;;;4854072;29;20060;-70
2023/01/08 10:55:36;;;;;;;8.60;1.95;;;9.00;95.60;;;;;;4849554;29;20069;-76
2023/01/08 10:58:08;;;;;;;9.07;2.33;;;9.10;95.80;;;;;;4854752;29;20045;-76
2023/01/08 11:00:35;;;;;;;10.77;2.25;;;9.00;94.80;;;;;;4856393;29;20084;-78
2023/01/08 11:03:04;;;;;;;6.97;2.22;;;9.00;93.70;;;;;;4856202;29;20489;-76
2023/01/08 11:05:32;;;;;;;7.88;1.60;;;9.10;93.70;;;;;;4841040;29;20533;-76
2023/01/08 11:08:00;;;;;;;7.80;1.77;;;9.00;93.20;;;;;;4857472;29;20049;-76
2023/01/08 11:10:27;;;;;;;5.88;1.65;;;9.10;93.90;;;;;;4839503;29;20125;-71
2023/01/08 11:12:56;;;;;;;8.85;1.63;;;9.20;92.50;;;;;;4856307;29;20057;-71
2023/01/08 11:15:25;;;;;;;8.25;1.85;;;9.20;92.20;;;;;;4853395;29;20066;-71
2023/01/08 11:17:51;;;;;;;7.75;1.88;;;9.20;92.20;;;;;;4855470;29;20451;-71
2023/01/08 11:20:29;;;;;;;7.68;2.00;;;9.30;91.60;;;;;;4855399;29;20141;-71
2023/01/08 11:23:15;;;;;;;11.18;2.55;;;9.40;90.10;;;;;;4860687;29;20050;-76
2023/01/08 11:25:46;;;;;;;7.47;1.70;;;9.40;89.30;;;;;;4859270;29;20053;-76
2023/01/08 11:28:18;;;;;;;7.47;1.73;;;9.50;87.00;;;;;;4844519;29;20491;-71
2023/01/08 11:30:52;;;;;;;8.85;1.85;;;9.50;85.20;;;;;;4873714;29;20048;-71
2023/01/08 11:33:27;;;;;;;9.32;1.58;;;9.60;85.50;;;;;;4842951;29;20110;-71
2023/01/08 11:36:02;;;;;;;6.95;1.60;;;9.60;81.20;;;;;;4857859;29;20042;-71
2023/01/08 11:38:28;;;;;;;7.63;1.45;;;9.70;82.20;;;;;;4859709;29;20081;-71
2023/01/08 11:41:49;;;;;;;7.05;1.52;;;9.70;82.40;;;;;;4857833;29;20100;-70
2023/01/08 11:44:52;;;;;;;8.20;1.75;;;9.80;81.00;;;;;;4805679;29;20135;-71
2023/01/08 11:47:50;;;;;;;7.90;1.63;;;9.80;78.40;;;;;;4841397;29;20065;-70
2023/01/08 11:50:27;;;;;;;8.43;2.00;;;9.90;79.00;;;;;;4857769;29;20044;-70
2023/01/08 11:52:58;;;;;;;5.90;1.60;;;9.70;77.20;;;;;;4851013;29;20130;-70
2023/01/08 11:55:33;;;;;;;7.18;1.67;;;9.50;76.90;;;;;;4841993;29;20408;-70
2023/01/08 11:58:25;;;;;;;10.30;1.52;;;9.60;79.50;;;;;;4859778;29;20068;-70
2023/01/08 12:01:12;;;;;;;6.28;1.60;;;9.50;76.80;;;;;;4841274;29;20141;-70
2023/01/08 12:03:48;;;;;;;8.90;1.88;;;9.60;77.30;;;;;;4859301;29;20603;-70
2023/01/08 12:06:41;;;;;;;9.38;1.92;;;9.50;77.70;;;;;;4857511;29;20386;-70
2023/01/08 12:09:29;;;;;;;8.98;2.05;;;9.50;76.40;;;;;;4859017;29;20068;-71
2023/01/08 12:12:05;;;;;;;9.63;2.40;;;9.50;77.40;;;;;;4857215;29;20121;-73
2023/01/08 12:14:49;;;;;;;9.48;2.17;;;9.50;76.90;;;;;;4859297;29;20045;-71
2023/01/08 12:17:42;;;;;;;8.05;1.67;;;9.60;77.80;;;;;;4857342;29;20133;-69
2023/01/08 12:20:20;;;;;;;12.40;1.98;;;9.70;77.90;;;;;;4840481;29;20052;-69
2023/01/08 12:23:10;;;;;;;9.63;1.95;;;9.80;77.30;;;;;;4856709;29;20046;-69
2023/01/08 12:26:17;;;;;;;6.68;1.70;;;9.80;74.70;;;;;;4856884;29;20081;-70
2023/01/08 12:29:11;;;;;;;9.80;2.15;;;9.80;72.60;;;;;;4854416;29;20140;-70
2023/01/08 12:31:40;;;;;;;8.35;1.92;;;9.60;73.50;;;;;;4855374;29;20098;-71
2023/01/08 12:34:15;;;;;;;9.93;2.00;;;9.80;74.80;;;;;;4856907;29;20076;-71
2023/01/08 12:37:02;;;;;;;7.55;1.90;;;10.00;75.10;;;;;;4856760;29;20116;-70
2023/01/08 12:39:32;;;;;;;8.77;2.28;;;10.00;73.30;;;;;;4857897;29;20045;-71
2023/01/08 12:42:10;;;;;;;8.30;1.95;;;10.10;74.00;;;;;;4858233;29;20045;-69
2023/01/08 12:44:36;;;;;;;7.05;2.13;;;10.10;71.20;;;;;;4858659;29;20037;-70
2023/01/08 12:47:06;;;;;;;9.40;2.20;;;9.90;69.00;;;;;;4857995;29;20061;-71
2023/01/08 12:49:43;;;;;;;6.00;1.70;;;9.80;70.60;;;;;;4840951;29;20073;-70
2023/01/08 12:52:21;;;;;;;5.45;1.60;;;9.80;72.70;;;;;;4855402;29;20132;-71
2023/01/08 12:54:56;;;;;;;7.63;1.98;;;9.80;72.30;;;;;;4858188;29;20108;-76
2023/01/08 12:57:33;;;;;;;8.77;1.73;;;9.80;71.60;;;;;;4835528;29;20057;-76
2023/01/08 13:00:18;;;;;;;5.75;1.83;;;9.70;72.20;;;;;;4860805;29;20045;-75
2023/01/08 13:03:03;;;;;;;7.65;1.85;;;9.60;72.10;;;;;;4860081;29;20082;-74
2023/01/08 13:05:34;;;;;;;8.45;1.58;;;9.60;74.30;;;;;;4859516;29;20105;-75
2023/01/08 13:08:05;;;;;;;7.43;1.80;;;9.60;73.70;;;;;;4837610;29;20046;-75
2023/01/08 13:10:31;;;;;;;10.85;1.77;;;9.60;74.40;;;;;;4858396;29;20044;-76
2023/01/08 13:13:00;;;;;;;10.90;2.05;;;9.60;74.70;;;;;;4854695;29;20037;-76